Time;durP1;ratioP1;P1;durP2;ratioP2;P2;SDS_P1;SDS_P2;PMS_P1;PMS_P2;Temp;Humidity;BMP_temperature;BMP_pressure;BME280_temperature;BME280_humidity;BME280_pressure;Samples;Min_cycle;Max_cycle;Signal;HPM_P1;HPM_P2
2021/06/18 00:00:17;;;;;;;6.90;4.85;;;;;;;16.49;65.38;97072.84;127839;1093;33383;-96
2021/06/18 00:03:09;;;;;;;7.73;4.98;;;;;;;16.37;65.58;97070.70;127748;1092;113569;-96
2021/06/18 00:05:40;;;;;;;8.13;5.58;;;;;;;16.37;65.86;97062.67;127877;1093;39887;-96
2021/06/18 00:08:13;;;;;;;6.38;5.28;;;;;;;16.40;66.10;97069.30;127753;1093;113705;-96
2021/06/18 00:10:45;;;;;;;7.50;5.40;;;;;;;16.48;66.25;97071.26;127820;1093;32275;-96
2021/06/18 00:13:16;;;;;;;8.08;5.58;;;;;;;16.58;66.01;97070.98;127747;1093;113859;-96
2021/06/18 00:15:48;;;;;;;6.20;4.78;;;;;;;16.66;65.88;97072.95;127628;1093;31521;-96
2021/06/18 00:18:19;;;;;;;6.70;4.85;;;;;;;16.76;65.90;97071.94;127803;1093;32963;-96
2021/06/18 00:20:53;;;;;;;7.35;5.40;;;;;;;16.79;65.75;97071.32;127697;1093;113512;-96
2021/06/18 00:23:24;;;;;;;8.88;5.95;;;;;;;16.81;65.67;97063.77;127752;1093;41624;-96
2021/06/18 00:25:56;;;;;;;11.83;6.25;;;;;;;16.75;65.50;97062.30;127614;1093;113638;-96
2021/06/18 00:28:28;;;;;;;7.93;5.90;;;;;;;16.70;65.26;97059.77;127832;1093;33206;-96
2021/06/18 00:31:01;;;;;;;8.23;6.10;;;;;;;16.61;65.68;97060.48;127747;1093;113935;-96
2021/06/18 00:33:33;;;;;;;9.28;5.75;;;;;;;16.53;65.67;97063.89;127537;1093;43266;-96
2021/06/18 00:36:05;;;;;;;8.48;5.40;;;;;;;16.47;65.72;97065.12;127693;1092;36216;-96
2021/06/18 00:38:36;;;;;;;8.78;5.60;;;;;;;16.50;65.90;97066.39;127585;1093;113837;-96
2021/06/18 00:41:09;;;;;;;7.85;5.50;;;;;;;16.54;65.88;97065.47;127828;1093;36739;-95
2021/06/18 00:43:40;;;;;;;7.50;5.98;;;;;;;16.63;66.06;97060.17;127494;1093;113618;-96
2021/06/18 00:46:13;;;;;;;8.65;6.05;;;;;;;16.67;65.63;97058.49;127624;1093;34219;-96
2021/06/18 00:48:45;;;;;;;7.50;5.30;;;;;;;16.55;65.80;97059.02;127852;1093;31944;-96
2021/06/18 00:51:18;;;;;;;6.93;5.28;;;;;;;16.41;66.01;97060.17;127684;1092;113293;-96
2021/06/18 00:53:51;;;;;;;8.85;5.23;;;;;;;16.23;66.32;97062.73;127549;1093;34660;-96
2021/06/18 00:56:23;;;;;;;8.00;5.20;;;;;;;16.25;66.47;97065.09;127415;1093;113604;-96
2021/06/18 00:58:55;;;;;;;7.60;5.45;;;;;;;16.16;66.71;97065.02;127543;1093;35717;-95
2021/06/18 01:01:27;;;;;;;9.80;5.60;;;;;;;16.19;66.88;97063.65;127633;1093;113864;-96
2021/06/18 01:03:58;;;;;;;6.43;4.50;;;;;;;16.31;66.64;97061.20;127545;1092;40045;-96
2021/06/18 01:06:35;;;;;;;7.90;5.28;;;;;;;16.28;66.88;97059.92;127645;1093;44786;-96
2021/06/18 01:09:11;;;;;;;8.73;5.37;;;;;;;16.30;66.94;97052.38;127628;1093;113685;-96
2021/06/18 01:11:52;;;;;;;8.80;5.38;;;;;;;16.30;66.64;97048.92;127821;1093;39829;-96
2021/06/18 01:14:33;;;;;;;9.38;5.50;;;;;;;16.20;66.76;97044.61;127757;1093;113503;-96
2021/06/18 01:17:12;;;;;;;9.93;5.90;;;;;;;16.06;67.22;97045.76;127820;1093;36784;-96
2021/06/18 01:20:03;;;;;;;6.73;4.50;;;;;;;16.02;67.54;97037.53;127577;1093;113596;-95
2021/06/18 01:22:34;;;;;;;;;;;;;;;15.80;67.58;97032.95;127945;1093;34844;-96
2021/06/18 01:25:14;;;;;;;7.30;5.40;;;;;;;15.64;67.95;97021.02;127499;1093;100083;-96
2021/06/18 01:28:03;;;;;;;8.43;4.97;;;;;;;15.55;68.44;97034.25;127526;1094;36552;-96
2021/06/18 01:30:36;;;;;;;7.75;5.73;;;;;;;15.59;68.79;97029.09;127572;1093;32491;-96
2021/06/18 01:33:14;;;;;;;10.23;5.40;;;;;;;15.71;68.81;97024.84;127418;1093;113789;-96
2021/06/18 01:35:49;;;;;;;6.78;4.80;;;;;;;15.81;68.70;97026.52;127807;1091;32765;-96
2021/06/18 01:38:25;;;;;;;7.75;4.95;;;;;;;15.90;68.52;97035.38;127701;1093;113631;-96
2021/06/18 01:41:01;;;;;;;7.15;5.20;;;;;;;15.99;68.51;97033.58;127561;1093;37525;-96
2021/06/18 01:43:35;;;;;;;6.85;5.18;;;;;;;16.06;68.35;97037.73;127718;1092;113634;-96
2021/06/18 01:46:09;;;;;;;7.30;5.43;;;;;;;16.09;68.20;97037.91;127520;1093;39546;-96
2021/06/18 01:48:45;;;;;;;9.23;6.28;;;;;;;16.11;68.19;97035.73;127924;1093;31853;-96
2021/06/18 01:51:18;;;;;;;8.18;5.75;;;;;;;16.06;68.09;97043.09;127487;1093;113782;-96
2021/06/18 01:53:52;;;;;;;7.73;5.50;;;;;;;16.06;67.99;97032.39;127531;1093;32161;-96
2021/06/18 01:56:24;;;;;;;7.50;5.38;;;;;;;15.96;68.29;97036.86;127440;1093;113513;-96
2021/06/18 01:59:00;;;;;;;7.68;5.23;;;;;;;15.91;68.34;97038.88;127566;1093;34500;-96
2021/06/18 02:01:34;;;;;;;6.40;5.15;;;;;;;15.92;68.22;97038.56;127554;1093;113990;-96
2021/06/18 02:04:09;;;;;;;7.30;5.30;;;;;;;16.00;68.39;97037.83;127635;1093;57509;-96
2021/06/18 02:06:43;;;;;;;6.48;5.10;;;;;;;15.98;68.24;97042.70;127644;1093;35010;-96
2021/06/18 02:09:18;;;;;;;7.28;5.30;;;;;;;16.10;68.39;97036.81;127447;1093;113544;-96
2021/06/18 02:11:49;;;;;;;6.63;5.10;;;;;;;16.23;68.24;97035.19;127834;1093;34407;-96
2021/06/18 02:14:24;;;;;;;6.55;5.33;;;;;;;16.31;68.18;97040.58;127426;1093;113481;-96
2021/06/18 02:16:59;;;;;;;7.83;5.35;;;;;;;16.38;68.09;97042.06;127572;1093;33067;-96
2021/06/18 02:19:32;;;;;;;7.55;5.35;;;;;;;16.47;67.91;97040.21;127796;1093;113875;-96
2021/06/18 02:22:07;;;;;;;6.83;4.95;;;;;;;16.53;67.87;97047.83;127512;1093;42674;-96
2021/06/18 02:24:41;;;;;;;8.53;5.00;;;;;;;16.57;67.49;97056.03;127836;1093;33061;-96
2021/06/18 02:27:15;;;;;;;6.73;4.80;;;;;;;16.60;67.56;97053.52;127687;1092;113503;-96
2021/06/18 02:29:47;;;;;;;7.80;5.53;;;;;;;16.57;67.39;97042.64;127556;1093;33877;-96
2021/06/18 02:32:20;;;;;;;7.75;5.73;;;;;;;16.53;67.31;97047.04;127441;1093;113258;-96
2021/06/18 02:34:52;;;;;;;9.03;5.45;;;;;;;16.48;67.23;97049.84;127542;1092;37049;-96
2021/06/18 02:37:23;;;;;;;7.38;5.05;;;;;;;16.38;67.22;97045.52;127434;1093;113798;-96
2021/06/18 02:39:55;;;;;;;7.33;5.63;;;;;;;16.26;67.47;97037.25;127801;1092;32163;-96
2021/06/18 02:42:26;;;;;;;6.28;4.93;;;;;;;16.24;67.76;97044.80;127828;1093;38457;-96
2021/06/18 02:44:58;;;;;;;7.13;5.28;;;;;;;16.24;67.92;97042.12;127427;1093;113503;-94
2021/06/18 02:47:37;;;;;;;8.48;5.38;;;;;;;16.24;67.92;97050.14;127826;1093;37322;-96
2021/06/18 02:50:15;;;;;;;8.75;5.50;;;;;;;16.32;68.22;97046.72;127682;1093;113666;-96
2021/06/18 02:52:55;;;;;;;6.75;5.15;;;;;;;16.42;68.05;97057.19;127607;1093;31137;-96
2021/06/18 02:55:33;;;;;;;7.75;5.18;;;;;;;16.47;67.78;97058.95;127707;1093;113709;-96
2021/06/18 02:58:12;;;;;;;6.85;5.33;;;;;;;16.52;68.03;97056.95;127689;1092;39755;-95
2021/06/18 03:00:45;;;;;;;7.53;5.60;;;;;;;16.62;68.09;97061.28;127968;1091;30987;-96
2021/06/18 03:03:23;;;;;;;6.83;5.28;;;;;;;16.67;67.89;97055.00;127446;1093;113449;-95
2021/06/18 03:06:00;;;;;;;7.83;5.58;;;;;;;16.74;67.77;97060.72;127781;1093;33655;-96
2021/06/18 03:08:35;;;;;;;6.75;5.15;;;;;;;16.78;67.79;97059.03;127451;1093;113695;-95
2021/06/18 03:11:08;;;;;;;7.40;5.38;;;;;;;16.87;67.29;97062.53;127811;1093;40281;-96
2021/06/18 03:13:43;;;;;;;7.10;5.20;;;;;;;16.99;67.09;97060.07;127487;1093;112876;-95
2021/06/18 03:16:16;;;;;;;8.90;6.00;;;;;;;17.03;66.85;97063.73;127726;1093;28237;-96
2021/06/18 03:18:49;;;;;;;6.78;5.38;;;;;;;17.07;66.69;97063.91;127833;1093;31452;-96
2021/06/18 03:21:22;;;;;;;7.83;5.60;;;;;;;17.13;66.49;97062.66;127732;1093;113282;-94
2021/06/18 03:23:57;;;;;;;6.65;5.00;;;;;;;17.16;66.51;97060.14;127750;1093;33487;-95
2021/06/18 03:26:29;;;;;;;7.13;5.63;;;;;;;17.19;66.31;97072.95;127714;1093;113604;-95
2021/06/18 03:29:03;;;;;;;7.93;5.58;;;;;;;17.19;66.19;97064.91;127536;1093;31185;-95
2021/06/18 03:31:37;;;;;;;8.45;5.90;;;;;;;17.24;66.20;97071.22;127446;1093;113883;-95
2021/06/18 03:34:12;;;;;;;6.25;5.45;;;;;;;17.26;66.29;97077.05;127844;1092;29405;-95
2021/06/18 03:36:46;;;;;;;7.00;4.65;;;;;;;17.29;66.47;97079.11;127642;1093;37224;-94
2021/06/18 03:39:18;;;;;;;7.70;5.17;;;;;;;17.25;66.59;97078.16;127439;1093;113738;-94
2021/06/18 03:41:49;;;;;;;6.80;5.00;;;;;;;17.27;66.48;97076.74;127798;1093;31281;-95
2021/06/18 03:44:23;;;;;;;8.50;5.95;;;;;;;17.37;66.37;97078.36;127746;1093;112731;-94
2021/06/18 03:46:58;;;;;;;7.20;5.48;;;;;;;17.39;66.30;97081.52;127753;1093;27857;-94
2021/06/18 03:49:31;;;;;;;8.15;5.83;;;;;;;17.42;66.09;97078.21;127673;1093;113888;-95
2021/06/18 03:52:03;;;;;;;6.78;4.68;;;;;;;17.44;66.31;97081.37;127873;1092;27014;-94
2021/06/18 03:54:34;;;;;;;7.33;5.10;;;;;;;17.52;66.24;97077.94;127548;1093;29304;-94
2021/06/18 03:57:07;;;;;;;7.70;5.40;;;;;;;17.62;65.98;97074.98;127404;1093;114424;-95
2021/06/18 03:59:42;;;;;;;6.28;5.28;;;;;;;17.70;65.85;97074.22;127658;1093;31868;-94
2021/06/18 04:02:16;;;;;;;7.10;4.95;;;;;;;17.78;65.50;97075.35;127517;1093;113732;-94
2021/06/18 04:04:49;;;;;;;8.93;5.40;;;;;;;17.86;65.53;97079.13;127568;1093;32449;-95
2021/06/18 04:07:21;;;;;;;7.18;5.00;;;;;;;17.96;65.58;97076.16;127439;1093;113795;-94
2021/06/18 04:09:54;;;;;;;9.23;5.93;;;;;;;18.05;65.48;97079.66;127798;1093;39086;-95
2021/06/18 04:12:26;;;;;;;8.23;5.05;;;;;;;18.15;65.22;97083.90;127534;1093;35680;-95
2021/06/18 04:14:57;;;;;;;7.20;5.60;;;;;;;18.25;65.39;97073.64;127717;1093;113567;-96
2021/06/18 04:17:30;;;;;;;7.25;5.18;;;;;;;18.34;65.16;97074.45;127799;1093;36682;-96
2021/06/18 04:20:02;;;;;;;6.95;4.90;;;;;;;18.43;65.17;97073.63;127625;1092;114311;-95
2021/06/18 04:22:35;;;;;;;6.63;4.55;;;;;;;18.54;64.60;97074.89;127542;1093;34131;-94
2021/06/18 04:25:09;;;;;;;8.13;5.10;;;;;;;18.65;64.58;97068.13;127412;1093;113856;-95
2021/06/18 04:27:41;;;;;;;6.63;4.63;;;;;;;18.77;64.22;97065.58;127787;1093;47370;-94
2021/06/18 04:30:17;;;;;;;8.28;5.98;;;;;;;18.89;64.28;97060.33;127663;1093;33899;-96
2021/06/18 04:32:49;;;;;;;7.73;5.35;;;;;;;19.02;64.29;97063.14;127718;1093;113539;-93
2021/06/18 04:35:20;;;;;;;6.95;5.38;;;;;;;19.14;64.14;97066.73;127550;1093;27636;-94
2021/06/18 04:37:52;;;;;;;6.43;4.70;;;;;;;19.28;63.85;97071.88;127725;1092;114387;-94
2021/06/18 04:40:23;;;;;;;6.03;4.93;;;;;;;19.37;63.53;97069.95;127594;1093;30930;-94
2021/06/18 04:42:55;;;;;;;6.78;5.30;;;;;;;19.45;63.22;97071.03;127836;1093;32712;-94
2021/06/18 04:45:27;;;;;;;10.93;5.50;;;;;;;19.52;62.91;97069.39;127749;1093;113618;-94
2021/06/18 04:47:59;;;;;;;6.70;5.15;;;;;;;19.63;62.91;97072.55;127822;1092;31558;-95
2021/06/18 04:50:31;;;;;;;10.78;5.10;;;;;;;19.75;62.59;97064.56;127735;1092;113687;-95
2021/06/18 04:53:03;;;;;;;8.43;5.48;;;;;;;19.84;62.11;97062.58;127821;1093;32259;-95
2021/06/18 04:55:34;;;;;;;7.48;4.73;;;;;;;19.94;61.99;97066.80;127728;1093;113694;-95
2021/06/18 04:58:06;;;;;;;6.87;5.13;;;;;;;19.99;61.16;97066.63;127897;1093;30850;-95
2021/06/18 05:00:37;;;;;;;6.77;5.33;;;;;;;20.01;61.05;97075.16;127571;1093;27695;-95
2021/06/18 05:03:10;;;;;;;7.48;5.85;;;;;;;20.11;61.17;97072.05;127721;1092;115303;-94
2021/06/18 05:05:41;;;;;;;8.13;5.58;;;;;;;20.23;61.13;97073.24;127623;1092;37229;-94
2021/06/18 05:08:13;;;;;;;7.13;5.13;;;;;;;20.30;60.90;97073.52;127446;1093;113561;-93
2021/06/18 05:10:44;;;;;;;5.95;5.35;;;;;;;20.38;60.83;97081.50;127886;1092;31000;-93
2021/06/18 05:13:16;;;;;;;6.50;5.30;;;;;;;20.51;60.36;97074.30;127702;1093;114527;-93
2021/06/18 05:15:47;;;;;;;9.50;5.40;;;;;;;20.65;60.18;97076.70;127513;1093;31316;-95
2021/06/18 05:18:19;;;;;;;7.60;5.25;;;;;;;20.81;60.03;97077.65;127530;1093;30324;-95
2021/06/18 05:20:50;;;;;;;7.00;4.90;;;;;;;20.97;59.38;97075.10;127456;1093;117063;-95
2021/06/18 05:23:22;;;;;;;6.47;5.27;;;;;;;21.27;59.98;97073.86;127731;1093;30734;-95
2021/06/18 05:25:54;;;;;;;9.08;5.10;;;;;;;22.09;59.92;97072.91;127456;1093;113534;-93
2021/06/18 05:28:25;;;;;;;9.98;5.43;;;;;;;23.05;58.68;97070.95;127519;1093;28102;-94
2021/06/18 05:30:57;;;;;;;6.53;4.68;;;;;;;23.91;56.80;97070.30;127543;1092;27638;-94
2021/06/18 05:33:28;;;;;;;6.50;4.70;;;;;;;24.45;55.00;97073.03;127672;1093;113559;-94
2021/06/18 05:36:00;;;;;;;6.05;5.20;;;;;;;24.85;54.16;97071.85;127814;1093;30745;-94
2021/06/18 05:38:31;;;;;;;7.95;5.30;;;;;;;25.21;52.78;97075.23;127595;1093;113562;-92
2021/06/18 05:41:03;;;;;;;5.95;5.00;;;;;;;25.45;51.65;97081.05;127540;1093;28958;-95
2021/06/18 05:43:35;;;;;;;6.88;4.73;;;;;;;25.69;50.72;97079.13;127402;1093;113645;-96
2021/06/18 05:46:06;;;;;;;5.63;4.78;;;;;;;25.99;50.64;97074.52;127467;1093;31306;-94
2021/06/18 05:48:38;;;;;;;7.60;4.95;;;;;;;26.44;49.75;97063.85;127462;1093;26853;-94
2021/06/18 05:51:10;;;;;;;7.05;4.23;;;;;;;26.71;48.66;97075.44;127476;1093;113593;-96
2021/06/18 05:53:41;;;;;;;6.43;4.83;;;;;;;26.99;48.01;97083.89;127618;1093;27735;-94
2021/06/18 05:56:13;;;;;;;6.13;4.73;;;;;;;27.33;47.25;97081.14;127499;1093;113584;-93
2021/06/18 05:58:44;;;;;;;5.68;4.43;;;;;;;27.44;46.20;97077.32;127757;1093;29230;-94
2021/06/18 06:01:16;;;;;;;7.15;4.85;;;;;;;27.66;46.52;97077.53;127316;1093;113887;-95
2021/06/18 06:03:47;;;;;;;9.05;4.90;;;;;;;28.08;46.04;97074.30;127539;1093;29525;-95
2021/06/18 06:06:19;;;;;;;5.73;4.50;;;;;;;28.43;44.78;97075.64;127832;1093;28828;-95
2021/06/18 06:08:52;;;;;;;5.93;4.40;;;;;;;28.78;44.81;97077.72;127450;1093;114257;-93
2021/06/18 06:11:25;;;;;;;5.33;4.20;;;;;;;29.05;43.59;97083.66;127549;1093;27077;-95
2021/06/18 06:14:00;;;;;;;5.63;4.00;;;;;;;29.30;42.78;97084.48;127422;1093;113826;-93
2021/06/18 06:16:34;;;;;;;5.28;4.33;;;;;;;29.41;41.52;97084.47;127687;1093;32356;-94
2021/06/18 06:19:06;;;;;;;6.23;4.08;;;;;;;29.57;41.66;97084.91;127715;1093;113961;-94
2021/06/18 06:21:40;;;;;;;5.10;4.03;;;;;;;29.74;41.54;97091.53;127853;1093;28566;-94
2021/06/18 06:24:13;;;;;;;5.05;4.00;;;;;;;29.96;40.42;97086.80;127569;1092;28187;-92
2021/06/18 06:26:45;;;;;;;6.48;3.90;;;;;;;30.07;40.28;97090.32;127801;1093;113837;-94
2021/06/18 06:29:17;;;;;;;6.13;4.55;;;;;;;30.21;39.94;97093.02;127836;1093;28655;-93
2021/06/18 06:31:48;;;;;;;5.98;4.23;;;;;;;30.19;39.10;97089.13;127430;1093;113897;-95
2021/06/18 06:34:19;;;;;;;5.77;4.23;;;;;;;30.28;39.49;97094.97;127727;1092;29926;-94
2021/06/18 06:36:51;;;;;;;5.15;3.98;;;;;;;30.57;38.65;97082.73;127561;1093;27334;-94
2021/06/18 06:39:22;;;;;;;6.73;4.48;;;;;;;30.86;38.49;97088.10;127386;1093;113583;-94
2021/06/18 06:41:54;;;;;;;7.23;4.20;;;;;;;30.89;38.34;97090.03;127791;1093;32612;-94
2021/06/18 06:44:26;;;;;;;5.93;4.10;;;;;;;31.15;38.37;97088.70;127447;1092;113720;-94
2021/06/18 06:46:57;;;;;;;5.48;4.28;;;;;;;31.33;37.64;97085.86;127831;1093;30971;-94
2021/06/18 06:49:28;;;;;;;4.35;3.70;;;;;;;31.73;37.40;97092.58;127727;1093;114042;-93
2021/06/18 06:52:00;;;;;;;5.20;3.95;;;;;;;31.70;36.62;97088.69;127744;1093;26582;-93
2021/06/18 06:54:32;;;;;;;4.70;4.00;;;;;;;31.87;35.85;97093.25;127760;1093;29169;-93
2021/06/18 06:57:04;;;;;;;4.88;3.78;;;;;;;31.96;35.46;97086.53;127709;1093;114107;-94
2021/06/18 06:59:35;;;;;;;4.38;3.73;;;;;;;31.95;35.43;97091.20;127503;1093;30276;-95
2021/06/18 07:02:07;;;;;;;5.85;4.18;;;;;;;32.05;35.55;97081.32;127752;1093;113673;-95
2021/06/18 07:04:39;;;;;;;5.85;3.88;;;;;;;32.20;35.41;97085.47;127854;1093;26144;-94
2021/06/18 07:07:11;;;;;;;5.38;3.70;;;;;;;32.55;35.11;97087.05;127533;1093;113847;-93
2021/06/18 07:09:42;;;;;;;4.30;3.38;;;;;;;32.87;34.58;97083.14;127573;1093;27645;-95
2021/06/18 07:12:16;;;;;;;5.78;3.90;;;;;;;33.11;35.72;97076.52;127415;1092;30876;-95
2021/06/18 07:14:48;;;;;;;5.45;4.08;;;;;;;33.76;34.92;97077.04;127319;1093;113691;-94
2021/06/18 07:17:20;;;;;;;6.15;4.33;;;;;;;33.48;34.31;97072.80;127637;1093;34094;-94
2021/06/18 07:19:54;;;;;;;4.55;4.10;;;;;;;33.65;34.76;97081.97;127439;1093;113723;-93
2021/06/18 07:22:26;;;;;;;4.40;3.58;;;;;;;34.07;34.21;97072.20;127840;1093;28687;-94
2021/06/18 07:24:57;;;;;;;6.63;4.15;;;;;;;34.58;33.52;97074.76;127544;1093;27081;-93
2021/06/18 07:27:29;;;;;;;5.20;3.83;;;;;;;34.44;32.75;97073.84;127450;1093;113657;-93
2021/06/18 07:30:01;;;;;;;4.25;3.80;;;;;;;34.14;32.93;97069.30;127551;1093;28703;-95
2021/06/18 07:32:32;;;;;;;6.10;4.03;;;;;;;34.59;33.12;97074.33;127419;1093;113682;-94
2021/06/18 07:35:04;;;;;;;4.67;3.70;;;;;;;35.21;31.87;97071.83;127814;1092;25207;-94
2021/06/18 07:37:35;;;;;;;4.58;3.43;;;;;;;35.70;31.34;97069.84;127699;1093;113844;-93
2021/06/18 07:40:11;;;;;;;5.48;3.68;;;;;;;35.73;30.65;97068.20;127839;1093;26964;-95
2021/06/18 07:42:45;;;;;;;4.70;3.60;;;;;;;36.09;30.39;97068.07;127865;1093;28857;-96
2021/06/18 07:45:17;;;;;;;5.28;3.75;;;;;;;36.03;29.36;97064.27;127696;1093;113806;-95
2021/06/18 07:47:49;;;;;;;3.60;3.23;;;;;;;35.90;29.89;97062.27;127823;1093;28218;-93
2021/06/18 07:50:22;;;;;;;4.23;3.33;;;;;;;36.34;29.96;97057.14;128051;1092;113988;-90
2021/06/18 07:52:54;;;;;;;5.13;3.75;;;;;;;36.22;29.42;97061.38;128224;1093;27300;-93
2021/06/18 07:55:26;;;;;;;3.70;3.23;;;;;;;36.37;29.91;97056.26;127424;1093;113907;-92
2021/06/18 07:57:57;;;;;;;4.45;3.33;;;;;;;36.98;29.26;97055.25;127419;1093;27170;-94
2021/06/18 08:00:29;;;;;;;5.20;3.58;;;;;;;37.21;29.30;97045.08;127783;1093;30507;-94
2021/06/18 08:03:03;;;;;;;4.00;3.60;;;;;;;37.91;28.88;97047.50;127452;1093;114634;-92
2021/06/18 08:05:36;;;;;;;5.55;3.60;;;;;;;38.02;26.92;97052.66;127468;1093;27237;-95
2021/06/18 08:08:08;;;;;;;5.10;3.70;;;;;;;36.23;26.97;97049.13;127690;1093;113743;-95
2021/06/18 08:10:40;;;;;;;4.40;3.40;;;;;;;34.91;27.72;97048.09;127749;1093;29259;-93
2021/06/18 08:13:11;;;;;;;4.23;3.13;;;;;;;34.20;28.72;97048.34;127415;1093;113942;-93
2021/06/18 08:15:43;;;;;;;4.03;3.30;;;;;;;34.02;28.37;97050.66;127538;1092;28251;-93
2021/06/18 08:18:18;;;;;;;4.63;3.40;;;;;;;33.87;29.47;97052.91;127616;1093;29311;-94
2021/06/18 08:20:50;;;;;;;6.77;3.33;;;;;;;34.21;29.39;97055.42;127641;1093;114479;-94
2021/06/18 08:23:21;;;;;;;5.48;3.78;;;;;;;34.26;29.42;97048.63;127471;1092;31365;-95
2021/06/18 08:25:53;;;;;;;4.63;3.85;;;;;;;34.47;29.61;97059.23;127693;1092;113892;-94
2021/06/18 08:28:25;;;;;;;5.53;3.70;;;;;;;35.04;30.51;97059.98;125824;1092;1836040;-94
2021/06/18 08:30:57;;;;;;;4.68;3.40;;;;;;;35.58;28.24;97059.51;127880;1093;29956;-94
2021/06/18 08:33:30;;;;;;;4.47;3.80;;;;;;;34.70;28.34;97052.85;125183;1093;2570484;-94
2021/06/18 08:36:02;;;;;;;5.35;3.85;;;;;;;34.11;29.27;97053.64;127529;1093;27619;-94
2021/06/18 08:38:35;;;;;;;4.70;3.85;;;;;;;33.79;29.60;97054.22;127734;1093;113831;-93
2021/06/18 08:41:08;;;;;;;4.10;3.28;;;;;;;33.61;30.69;97049.02;127584;1093;24968;-93
2021/06/18 08:43:40;;;;;;;5.20;3.58;;;;;;;34.23;30.30;97042.01;127480;1093;114639;-94
2021/06/18 08:46:12;;;;;;;4.13;3.50;;;;;;;34.44;30.01;97053.80;127918;1092;24739;-92
2021/06/18 08:48:43;;;;;;;3.85;3.33;;;;;;;34.56;29.73;97044.89;127909;1093;31241;-92
2021/06/18 08:51:16;;;;;;;5.13;3.25;;;;;;;34.50;29.24;97052.12;127803;1093;117882;-92
2021/06/18 08:53:48;;;;;;;4.00;3.10;;;;;;;34.03;27.85;97048.69;127559;1092;27660;-92
2021/06/18 08:56:21;;;;;;;4.65;3.30;;;;;;;32.95;28.20;97052.42;127453;1092;113725;-92
2021/06/18 08:58:53;;;;;;;3.80;3.20;;;;;;;32.08;29.60;97053.06;127889;1093;26343;-92
2021/06/18 09:01:25;;;;;;;4.53;3.48;;;;;;;31.67;29.74;97048.36;127735;1093;114976;-93
2021/06/18 09:04:02;;;;;;;5.30;3.53;;;;;;;31.05;31.12;97045.72;127592;1093;29468;-91
2021/06/18 09:06:36;;;;;;;5.35;3.55;;;;;;;31.37;31.88;97049.02;127734;1093;31998;-93
2021/06/18 09:09:20;;;;;;;4.30;3.43;;;;;;;31.75;32.22;97049.89;127746;1093;113685;-91
2021/06/18 09:11:54;;;;;;;4.40;3.38;;;;;;;32.06;32.52;97053.48;127550;1093;27909;-92
2021/06/18 09:14:31;;;;;;;5.73;3.73;;;;;;;31.64;30.78;97040.95;127451;1093;114471;-93
2021/06/18 09:17:16;;;;;;;5.18;3.63;;;;;;;30.97;32.43;97043.05;127606;1093;26883;-93
2021/06/18 09:19:51;;;;;;;5.30;3.48;;;;;;;31.15;33.00;97045.66;127467;1092;113865;-93
2021/06/18 09:22:25;;;;;;;4.85;3.55;;;;;;;31.43;33.32;97038.42;127832;1093;28288;-93
2021/06/18 09:25:04;;;;;;;4.53;3.75;;;;;;;31.69;33.22;97039.75;127769;1093;27200;-93
2021/06/18 09:27:38;;;;;;;8.18;3.70;;;;;;;31.79;33.45;97034.17;127456;1092;113546;-93
2021/06/18 09:30:26;;;;;;;5.60;3.50;;;;;;;31.77;33.23;97035.77;127865;1093;29564;-92
2021/06/18 09:33:01;;;;;;;5.55;3.50;;;;;;;31.83;33.67;97034.94;127738;1093;113711;-93
2021/06/18 09:35:34;;;;;;;5.70;4.08;;;;;;;31.94;32.98;97034.80;127569;1093;23684;-93
2021/06/18 09:38:08;;;;;;;4.65;3.53;;;;;;;31.83;32.67;97032.19;127455;1093;113778;-93
2021/06/18 09:40:40;;;;;;;7.23;3.73;;;;;;;31.44;33.05;97034.50;127705;1093;29054;-91
2021/06/18 09:43:15;;;;;;;4.58;3.50;;;;;;;31.21;32.95;97037.80;127671;1093;26696;-92
2021/06/18 09:45:47;;;;;;;4.70;3.40;;;;;;;30.86;32.87;97027.87;127730;1093;114047;-93
2021/06/18 09:48:21;;;;;;;5.30;3.95;;;;;;;30.43;34.68;97030.81;127480;1093;27615;-93
2021/06/18 09:51:02;;;;;;;4.68;3.60;;;;;;;30.71;34.76;97027.95;127753;1093;114210;-93
2021/06/18 09:53:34;;;;;;;6.03;3.68;;;;;;;30.53;33.31;97032.70;127549;1093;27652;-93
2021/06/18 09:56:08;;;;;;;4.60;3.67;;;;;;;30.58;35.29;97020.58;127730;1093;114040;-95
2021/06/18 09:58:42;;;;;;;6.58;4.35;;;;;;;30.84;35.21;97016.55;127841;1093;27909;-95
2021/06/18 10:01:24;;;;;;;6.00;3.50;;;;;;;30.89;35.16;97018.84;127630;1093;30885;-91
2021/06/18 10:04:05;;;;;;;4.93;3.53;;;;;;;31.06;34.50;97020.67;127759;1093;113518;-96
2021/06/18 10:06:39;;;;;;;7.18;4.03;;;;;;;31.19;35.04;97010.81;127700;1093;44614;-96
2021/06/18 10:09:13;;;;;;;4.83;3.33;;;;;;;31.33;34.65;97009.14;127861;1093;113854;-95
2021/06/18 10:11:47;;;;;;;3.95;3.30;;;;;;;31.37;34.42;97007.14;127650;1093;38268;-96
2021/06/18 10:14:19;;;;;;;7.75;3.55;;;;;;;31.51;34.69;97012.49;127785;1093;114836;-96
2021/06/18 10:17:15;;;;;;;5.43;3.60;;;;;;;31.42;34.61;97009.46;127625;1093;91481;-93
2021/06/18 10:19:46;;;;;;;5.15;3.33;;;;;;;31.18;34.71;97006.52;127506;1093;114040;-90
2021/06/18 10:22:21;;;;;;;6.38;3.73;;;;;;;31.24;34.68;97013.11;127729;1093;44784;-87
2021/06/18 10:25:00;;;;;;;4.28;3.85;;;;;;;31.11;34.06;97011.23;127886;1093;22797;-86
2021/06/18 10:27:35;;;;;;;4.88;3.38;;;;;;;30.87;34.68;97004.78;127350;1093;113767;-89
2021/06/18 10:30:28;;;;;;;5.13;3.80;;;;;;;30.66;34.78;97006.45;127827;1093;22774;-84
2021/06/18 10:33:01;;;;;;;5.25;3.93;;;;;;;30.42;34.18;96999.16;127360;1093;113701;-85
2021/06/18 10:35:52;;;;;;;6.18;4.20;;;;;;;30.04;34.86;97004.37;127445;1093;33731;-90
2021/06/18 10:38:30;;;;;;;6.73;4.35;;;;;;;30.17;35.58;96990.29;127350;1092;114233;-85
2021/06/18 10:41:04;;;;;;;5.60;4.73;;;;;;;30.37;35.37;96991.35;127925;1093;23577;-83
2021/06/18 10:43:41;;;;;;;6.28;4.48;;;;;;;30.00;35.53;96984.47;127475;1093;22858;-83
2021/06/18 10:46:21;;;;;;;6.25;4.63;;;;;;;29.94;36.51;96991.50;127390;1093;114362;-84
2021/06/18 10:49:11;;;;;;;5.00;4.33;;;;;;;30.21;37.51;96975.41;127804;1093;23117;-81
2021/06/18 10:51:51;;;;;;;8.25;4.98;;;;;;;30.36;37.93;96981.59;127413;1093;114206;-85
2021/06/18 10:54:29;;;;;;;9.20;5.28;;;;;;;30.33;37.03;96985.13;127909;1092;22966;-83
2021/06/18 10:57:04;;;;;;;6.43;4.50;;;;;;;30.20;37.04;96986.75;127816;1093;113723;-84
2021/06/18 10:59:43;;;;;;;5.80;5.03;;;;;;;30.20;37.03;96984.02;127853;1093;27469;-82
2021/06/18 11:02:45;;;;;;;7.18;4.85;;;;;;;30.14;37.13;96978.97;127569;1093;115325;-86
2021/06/18 11:05:39;;;;;;;5.90;4.70;;;;;;;30.29;38.17;96979.69;127508;1093;27031;-90
2021/06/18 11:08:32;;;;;;;7.73;5.10;;;;;;;30.16;36.26;96983.27;127683;1093;114158;-88
2021/06/18 11:11:23;;;;;;;6.10;4.95;;;;;;;29.91;36.83;96981.37;127728;1093;64862;-88
2021/06/18 11:14:05;;;;;;;5.58;4.98;;;;;;;30.05;37.74;96969.63;127836;1093;24405;-86
2021/06/18 11:16:38;;;;;;;6.05;4.88;;;;;;;30.21;37.03;96963.69;127892;1093;25268;-89
2021/06/18 11:19:27;;;;;;;6.75;4.38;;;;;;;29.69;36.08;96975.17;127465;1093;22794;-92
2021/06/18 11:22:19;;;;;;;5.65;4.95;;;;;;;29.38;35.74;96967.80;127477;1093;113811;-91
2021/06/18 11:24:50;;;;;;;5.98;4.90;;;;;;;29.16;35.59;96959.64;127884;1093;22829;-85
2021/06/18 11:27:28;;;;;;;8.48;5.43;;;;;;;28.89;35.94;96961.98;127751;1093;114829;-86
2021/06/18 11:30:26;;;;;;;6.08;4.53;;;;;;;28.75;35.97;96958.44;127596;1093;51031;-91
2021/06/18 11:32:59;;;;;;;7.90;4.88;;;;;;;28.82;38.15;96955.70;127499;1093;114352;-87
2021/06/18 11:35:44;;;;;;;5.10;4.18;;;;;;;29.17;37.56;96957.69;127900;1093;22790;-88
2021/06/18 11:38:18;;;;;;;6.13;3.93;;;;;;;29.13;36.39;96949.48;127521;1092;114143;-83
2021/06/18 11:40:58;;;;;;;5.18;4.15;;;;;;;29.18;37.05;96949.11;127518;1092;34281;-87
2021/06/18 11:43:29;;;;;;;;;;;;;;;29.43;37.85;96951.03;127908;1093;23234;-86
2021/06/18 11:46:01;;;;;;;6.43;4.33;;;;;;;29.69;37.56;96949.80;127776;1093;100963;-88
2021/06/18 11:48:33;;;;;;;4.90;4.38;;;;;;;29.89;37.19;96942.72;127850;1093;24767;-87
2021/06/18 11:51:06;;;;;;;7.90;4.70;;;;;;;30.07;37.27;96942.66;127458;1093;115067;-86
2021/06/18 11:53:45;;;;;;;5.45;3.85;;;;;;;30.21;35.90;96944.55;127532;1093;23477;-86